sensor_id;sensor_type;location;lat;lon;timestamp;temperature;humidity
3281;DHT22;1652;51.318;6.202;2023-08-30T00:01:54;13.50;99.90
3281;DHT22;1652;51.318;6.202;2023-08-30T00:04:21;13.50;99.90
3281;DHT22;1652;51.318;6.202;2023-08-30T00:06:49;13.50;99.90
3281;DHT22;1652;51.318;6.202;2023-08-30T00:09:15;13.60;99.90
3281;DHT22;1652;51.318;6.202;2023-08-30T00:11:42;13.70;99.90
3281;DHT22;1652;51.318;6.202;2023-08-30T00:14:09;13.70;99.90
3281;DHT22;1652;51.318;6.202;2023-08-30T00:16:37;13.60;99.90
3281;DHT22;1652;51.318;6.202;2023-08-30T00:19:06;13.60;99.90
3281;DHT22;1652;51.318;6.202;2023-08-30T00:21:32;13.50;99.90
3281;DHT22;1652;51.318;6.202;2023-08-30T00:23:59;13.40;99.90
3281;DHT22;1652;51.318;6.202;2023-08-30T00:26:27;13.50;99.90
3281;DHT22;1652;51.318;6.202;2023-08-30T00:28:54;13.40;99.90
3281;DHT22;1652;51.318;6.202;2023-08-30T00:31:20;13.40;99.90
3281;DHT22;1652;51.318;6.202;2023-08-30T00:33:48;13.40;99.90
3281;DHT22;1652;51.318;6.202;2023-08-30T00:36:15;13.30;99.90
3281;DHT22;1652;51.318;6.202;2023-08-30T00:38:45;13.10;99.90
3281;DHT22;1652;51.318;6.202;2023-08-30T00:41:11;13.10;99.90
3281;DHT22;1652;51.318;6.202;2023-08-30T00:43:39;13.10;99.90
3281;DHT22;1652;51.318;6.202;2023-08-30T00:46:06;13.10;99.90
3281;DHT22;1652;51.318;6.202;2023-08-30T00:48:33;13.20;99.90
3281;DHT22;1652;51.318;6.202;2023-08-30T00:50:59;13.20;99.90
3281;DHT22;1652;51.318;6.202;2023-08-30T00:53:26;13.20;99.90
3281;DHT22;1652;51.318;6.202;2023-08-30T00:55:53;13.10;99.90
3281;DHT22;1652;51.318;6.202;2023-08-30T00:58:20;13.00;99.90
3281;DHT22;1652;51.318;6.202;2023-08-30T01:00:47;13.00;99.90
3281;DHT22;1652;51.318;6.202;2023-08-30T01:03:14;13.00;99.90
3281;DHT22;1652;51.318;6.202;2023-08-30T01:05:41;12.90;99.90
3281;DHT22;1652;51.318;6.202;2023-08-30T01:08:08;12.90;99.90
3281;DHT22;1652;51.318;6.202;2023-08-30T01:10:44;13.00;99.90
3281;DHT22;1652;51.318;6.202;2023-08-30T01:13:15;13.00;99.90
3281;DHT22;1652;51.318;6.202;2023-08-30T01:15:47;13.20;99.90
3281;DHT22;1652;51.318;6.202;2023-08-30T01:18:17;13.30;99.90
3281;DHT22;1652;51.318;6.202;2023-08-30T01:20:45;13.40;99.90
3281;DHT22;1652;51.318;6.202;2023-08-30T01:23:23;13.50;99.90
3281;DHT22;1652;51.318;6.202;2023-08-30T01:26:03;13.50;99.90
3281;DHT22;1652;51.318;6.202;2023-08-30T01:28:31;13.60;99.90
3281;DHT22;1652;51.318;6.202;2023-08-30T01:30:59;13.70;99.90
3281;DHT22;1652;51.318;6.202;2023-08-30T01:33:27;13.70;99.90
3281;DHT22;1652;51.318;6.202;2023-08-30T01:35:59;13.70;99.90
3281;DHT22;1652;51.318;6.202;2023-08-30T01:38:29;13.70;99.90
3281;DHT22;1652;51.318;6.202;2023-08-30T01:40:59;13.70;99.90
3281;DHT22;1652;51.318;6.202;2023-08-30T01:43:28;13.80;99.90
3281;DHT22;1652;51.318;6.202;2023-08-30T01:45:56;13.80;99.90
3281;DHT22;1652;51.318;6.202;2023-08-30T01:48:24;14.00;99.90
3281;DHT22;1652;51.318;6.202;2023-08-30T01:50:51;14.00;99.90
3281;DHT22;1652;51.318;6.202;2023-08-30T01:53:19;14.00;99.90
3281;DHT22;1652;51.318;6.202;2023-08-30T01:55:46;14.00;99.90
3281;DHT22;1652;51.318;6.202;2023-08-30T01:58:13;14.00;99.90
3281;DHT22;1652;51.318;6.202;2023-08-30T02:00:40;14.10;99.90
3281;DHT22;1652;51.318;6.202;2023-08-30T02:03:11;14.10;99.90
3281;DHT22;1652;51.318;6.202;2023-08-30T02:05:51;14.10;99.90
3281;DHT22;1652;51.318;6.202;2023-08-30T02:08:19;14.10;99.90
3281;DHT22;1652;51.318;6.202;2023-08-30T02:10:52;14.10;99.90
3281;DHT22;1652;51.318;6.202;2023-08-30T02:13:25;14.10;99.90
3281;DHT22;1652;51.318;6.202;2023-08-30T02:15:56;14.10;99.90
3281;DHT22;1652;51.318;6.202;2023-08-30T02:21:01;14.10;99.90
3281;DHT22;1652;51.318;6.202;2023-08-30T02:23:28;14.10;99.90
3281;DHT22;1652;51.318;6.202;2023-08-30T02:25:55;14.10;99.90
3281;DHT22;1652;51.318;6.202;2023-08-30T02:28:22;14.10;99.90
3281;DHT22;1652;51.318;6.202;2023-08-30T02:30:52;14.10;99.90
3281;DHT22;1652;51.318;6.202;2023-08-30T02:33:19;14.00;99.90
3281;DHT22;1652;51.318;6.202;2023-08-30T02:35:46;13.90;99.90
3281;DHT22;1652;51.318;6.202;2023-08-30T02:38:13;13.90;99.90
3281;DHT22;1652;51.318;6.202;2023-08-30T02:40:40;13.80;99.90
3281;DHT22;1652;51.318;6.202;2023-08-30T02:43:07;13.80;99.90
3281;DHT22;1652;51.318;6.202;2023-08-30T02:45:33;13.90;99.90
3281;DHT22;1652;51.318;6.202;2023-08-30T02:48:01;13.90;99.90
3281;DHT22;1652;51.318;6.202;2023-08-30T02:50:28;13.90;99.90
3281;DHT22;1652;51.318;6.202;2023-08-30T02:52:55;14.00;99.90
3281;DHT22;1652;51.318;6.202;2023-08-30T02:55:22;14.00;99.90
3281;DHT22;1652;51.318;6.202;2023-08-30T02:57:49;14.00;99.90
3281;DHT22;1652;51.318;6.202;2023-08-30T03:00:16;14.00;99.90
3281;DHT22;1652;51.318;6.202;2023-08-30T03:02:43;14.00;99.90
3281;DHT22;1652;51.318;6.202;2023-08-30T03:05:10;14.00;99.90
3281;DHT22;1652;51.318;6.202;2023-08-30T03:07:38;14.10;99.90
3281;DHT22;1652;51.318;6.202;2023-08-30T03:10:06;14.00;99.90
3281;DHT22;1652;51.318;6.202;2023-08-30T03:12:33;14.10;99.90
3281;DHT22;1652;51.318;6.202;2023-08-30T03:15:00;14.10;99.90
3281;DHT22;1652;51.318;6.202;2023-08-30T03:17:27;14.10;99.90
3281;DHT22;1652;51.318;6.202;2023-08-30T03:19:57;14.10;99.90
3281;DHT22;1652;51.318;6.202;2023-08-30T03:22:24;14.10;99.90
3281;DHT22;1652;51.318;6.202;2023-08-30T03:24:51;14.20;99.90
3281;DHT22;1652;51.318;6.202;2023-08-30T03:27:18;14.20;99.90
3281;DHT22;1652;51.318;6.202;2023-08-30T03:29:46;14.10;99.90
3281;DHT22;1652;51.318;6.202;2023-08-30T03:32:17;14.20;99.90
3281;DHT22;1652;51.318;6.202;2023-08-30T03:34:45;14.20;99.90
3281;DHT22;1652;51.318;6.202;2023-08-30T03:37:14;14.20;99.90
3281;DHT22;1652;51.318;6.202;2023-08-30T03:39:42;14.20;99.90
3281;DHT22;1652;51.318;6.202;2023-08-30T03:42:09;14.20;99.90
3281;DHT22;1652;51.318;6.202;2023-08-30T03:44:37;14.20;99.90
3281;DHT22;1652;51.318;6.202;2023-08-30T03:47:05;14.20;99.90
3281;DHT22;1652;51.318;6.202;2023-08-30T03:49:32;14.20;99.90
3281;DHT22;1652;51.318;6.202;2023-08-30T03:51:59;14.20;99.90
3281;DHT22;1652;51.318;6.202;2023-08-30T03:54:26;14.20;99.90
3281;DHT22;1652;51.318;6.202;2023-08-30T03:56:53;14.20;99.90
3281;DHT22;1652;51.318;6.202;2023-08-30T03:59:19;14.10;99.90
3281;DHT22;1652;51.318;6.202;2023-08-30T04:01:48;14.20;99.90
3281;DHT22;1652;51.318;6.202;2023-08-30T04:04:15;14.20;99.90
3281;DHT22;1652;51.318;6.202;2023-08-30T04:06:42;14.20;99.90
3281;DHT22;1652;51.318;6.202;2023-08-30T04:09:09;14.20;99.90
3281;DHT22;1652;51.318;6.202;2023-08-30T04:11:37;14.20;99.90
3281;DHT22;1652;51.318;6.202;2023-08-30T04:14:03;14.10;99.90
3281;DHT22;1652;51.318;6.202;2023-08-30T04:16:30;14.20;99.90
3281;DHT22;1652;51.318;6.202;2023-08-30T04:18:57;14.20;99.90
3281;DHT22;1652;51.318;6.202;2023-08-30T04:21:24;14.20;99.90
3281;DHT22;1652;51.318;6.202;2023-08-30T04:23:51;14.20;99.90
3281;DHT22;1652;51.318;6.202;2023-08-30T04:26:18;14.20;99.90
3281;DHT22;1652;51.318;6.202;2023-08-30T04:28:45;14.20;99.90
3281;DHT22;1652;51.318;6.202;2023-08-30T04:31:12;14.20;99.90
3281;DHT22;1652;51.318;6.202;2023-08-30T04:33:39;14.30;99.90
3281;DHT22;1652;51.318;6.202;2023-08-30T04:36:06;14.30;99.90
3281;DHT22;1652;51.318;6.202;2023-08-30T04:38:34;14.30;99.90
3281;DHT22;1652;51.318;6.202;2023-08-30T04:41:11;14.30;99.90
3281;DHT22;1652;51.318;6.202;2023-08-30T04:43:38;14.20;99.90
3281;DHT22;1652;51.318;6.202;2023-08-30T04:46:05;14.20;99.90
3281;DHT22;1652;51.318;6.202;2023-08-30T04:48:31;14.30;99.90
3281;DHT22;1652;51.318;6.202;2023-08-30T04:51:02;14.30;99.90
3281;DHT22;1652;51.318;6.202;2023-08-30T04:53:30;14.30;99.90
3281;DHT22;1652;51.318;6.202;2023-08-30T04:55:57;14.30;99.90
3281;DHT22;1652;51.318;6.202;2023-08-30T04:58:24;14.30;99.90
3281;DHT22;1652;51.318;6.202;2023-08-30T05:00:50;14.30;99.90
3281;DHT22;1652;51.318;6.202;2023-08-30T05:03:17;14.30;99.90
3281;DHT22;1652;51.318;6.202;2023-08-30T05:05:45;14.30;99.90
3281;DHT22;1652;51.318;6.202;2023-08-30T05:08:12;14.20;99.90
3281;DHT22;1652;51.318;6.202;2023-08-30T05:10:39;14.20;99.90
3281;DHT22;1652;51.318;6.202;2023-08-30T05:13:07;14.20;99.90
3281;DHT22;1652;51.318;6.202;2023-08-30T05:15:34;14.20;99.90
3281;DHT22;1652;51.318;6.202;2023-08-30T05:18:01;14.20;99.90
3281;DHT22;1652;51.318;6.202;2023-08-30T05:20:28;14.20;99.90
3281;DHT22;1652;51.318;6.202;2023-08-30T05:22:55;14.10;99.90
3281;DHT22;1652;51.318;6.202;2023-08-30T05:25:21;14.20;99.90
3281;DHT22;1652;51.318;6.202;2023-08-30T05:27:48;14.20;99.90
3281;DHT22;1652;51.318;6.202;2023-08-30T05:30:15;14.20;99.90
3281;DHT22;1652;51.318;6.202;2023-08-30T05:32:43;14.30;99.90
3281;DHT22;1652;51.318;6.202;2023-08-30T05:35:10;14.30;99.90
3281;DHT22;1652;51.318;6.202;2023-08-30T05:37:37;14.30;99.90
3281;DHT22;1652;51.318;6.202;2023-08-30T05:40:04;14.40;99.90
3281;DHT22;1652;51.318;6.202;2023-08-30T05:42:31;14.60;99.90
3281;DHT22;1652;51.318;6.202;2023-08-30T05:44:58;14.70;99.90
3281;DHT22;1652;51.318;6.202;2023-08-30T05:47:25;14.80;99.90
3281;DHT22;1652;51.318;6.202;2023-08-30T05:49:52;15.00;99.90
3281;DHT22;1652;51.318;6.202;2023-08-30T05:52:19;15.30;99.90
3281;DHT22;1652;51.318;6.202;2023-08-30T05:54:45;15.70;99.90
3281;DHT22;1652;51.318;6.202;2023-08-30T05:57:12;16.30;99.90
3281;DHT22;1652;51.318;6.202;2023-08-30T05:59:39;16.70;99.90
3281;DHT22;1652;51.318;6.202;2023-08-30T06:02:06;17.20;99.90
3281;DHT22;1652;51.318;6.202;2023-08-30T06:04:33;17.70;99.90
3281;DHT22;1652;51.318;6.202;2023-08-30T06:07:00;17.60;99.90
3281;DHT22;1652;51.318;6.202;2023-08-30T06:09:27;17.40;99.90
3281;DHT22;1652;51.318;6.202;2023-08-30T06:11:54;17.20;99.90
3281;DHT22;1652;51.318;6.202;2023-08-30T06:14:21;17.30;99.90
3281;DHT22;1652;51.318;6.202;2023-08-30T06:16:48;17.80;99.90
3281;DHT22;1652;51.318;6.202;2023-08-30T06:19:15;18.10;99.90
3281;DHT22;1652;51.318;6.202;2023-08-30T06:21:42;18.40;99.90
3281;DHT22;1652;51.318;6.202;2023-08-30T06:24:09;18.90;99.90
3281;DHT22;1652;51.318;6.202;2023-08-30T06:26:36;19.20;99.90
3281;DHT22;1652;51.318;6.202;2023-08-30T06:29:03;19.60;99.90
3281;DHT22;1652;51.318;6.202;2023-08-30T06:31:31;20.10;99.90
3281;DHT22;1652;51.318;6.202;2023-08-30T06:33:59;20.60;99.90
3281;DHT22;1652;51.318;6.202;2023-08-30T06:36:26;21.30;99.90
3281;DHT22;1652;51.318;6.202;2023-08-30T06:38:53;21.70;99.90
3281;DHT22;1652;51.318;6.202;2023-08-30T06:41:20;22.10;99.90
3281;DHT22;1652;51.318;6.202;2023-08-30T06:43:47;22.10;99.90
3281;DHT22;1652;51.318;6.202;2023-08-30T06:46:14;22.00;99.90
3281;DHT22;1652;51.318;6.202;2023-08-30T06:48:41;22.40;99.90
3281;DHT22;1652;51.318;6.202;2023-08-30T06:51:08;22.20;99.90
3281;DHT22;1652;51.318;6.202;2023-08-30T06:53:35;21.10;99.90
3281;DHT22;1652;51.318;6.202;2023-08-30T06:56:02;20.10;99.90
3281;DHT22;1652;51.318;6.202;2023-08-30T06:58:30;19.10;99.90
3281;DHT22;1652;51.318;6.202;2023-08-30T07:00:57;18.60;99.90
3281;DHT22;1652;51.318;6.202;2023-08-30T07:03:24;18.20;99.90
3281;DHT22;1652;51.318;6.202;2023-08-30T07:05:52;18.00;99.90
3281;DHT22;1652;51.318;6.202;2023-08-30T07:08:19;17.80;99.90
3281;DHT22;1652;51.318;6.202;2023-08-30T07:10:46;17.80;99.90
3281;DHT22;1652;51.318;6.202;2023-08-30T07:13:13;17.60;99.90
3281;DHT22;1652;51.318;6.202;2023-08-30T07:15:41;17.50;99.90
3281;DHT22;1652;51.318;6.202;2023-08-30T07:18:09;17.50;99.90
3281;DHT22;1652;51.318;6.202;2023-08-30T07:20:39;17.50;99.90
3281;DHT22;1652;51.318;6.202;2023-08-30T07:23:06;17.50;99.90
3281;DHT22;1652;51.318;6.202;2023-08-30T07:25:37;17.70;99.90
3281;DHT22;1652;51.318;6.202;2023-08-30T07:28:05;17.80;99.90
3281;DHT22;1652;51.318;6.202;2023-08-30T07:30:33;17.90;99.90
3281;DHT22;1652;51.318;6.202;2023-08-30T07:33:02;18.00;99.90
3281;DHT22;1652;51.318;6.202;2023-08-30T07:35:31;18.10;99.90
3281;DHT22;1652;51.318;6.202;2023-08-30T07:37:59;18.10;99.90
3281;DHT22;1652;51.318;6.202;2023-08-30T07:40:26;18.10;99.90
3281;DHT22;1652;51.318;6.202;2023-08-30T07:42:55;18.10;99.90
3281;DHT22;1652;51.318;6.202;2023-08-30T07:45:30;18.20;99.90
3281;DHT22;1652;51.318;6.202;2023-08-30T07:47:57;18.20;99.90
3281;DHT22;1652;51.318;6.202;2023-08-30T07:50:24;18.20;99.90
3281;DHT22;1652;51.318;6.202;2023-08-30T07:52:51;18.10;99.90
3281;DHT22;1652;51.318;6.202;2023-08-30T07:55:18;18.00;99.90
3281;DHT22;1652;51.318;6.202;2023-08-30T07:57:44;17.60;99.90
3281;DHT22;1652;51.318;6.202;2023-08-30T08:00:13;17.20;99.90
3281;DHT22;1652;51.318;6.202;2023-08-30T08:02:40;16.90;99.90
3281;DHT22;1652;51.318;6.202;2023-08-30T08:05:08;16.60;99.90
3281;DHT22;1652;51.318;6.202;2023-08-30T08:07:38;16.30;99.90
3281;DHT22;1652;51.318;6.202;2023-08-30T08:10:06;16.10;99.90
3281;DHT22;1652;51.318;6.202;2023-08-30T08:12:33;16.00;99.90
3281;DHT22;1652;51.318;6.202;2023-08-30T08:15:01;15.90;99.90
3281;DHT22;1652;51.318;6.202;2023-08-30T08:17:29;16.00;99.90
3281;DHT22;1652;51.318;6.202;2023-08-30T08:19:55;16.00;99.90
3281;DHT22;1652;51.318;6.202;2023-08-30T08:22:22;15.90;99.90
3281;DHT22;1652;51.318;6.202;2023-08-30T08:24:49;15.90;99.90
3281;DHT22;1652;51.318;6.202;2023-08-30T08:27:18;15.90;99.90
3281;DHT22;1652;51.318;6.202;2023-08-30T08:29:45;15.80;99.90
3281;DHT22;1652;51.318;6.202;2023-08-30T08:32:12;15.70;99.90
3281;DHT22;1652;51.318;6.202;2023-08-30T08:34:38;15.60;99.90
3281;DHT22;1652;51.318;6.202;2023-08-30T08:37:06;15.50;99.90
3281;DHT22;1652;51.318;6.202;2023-08-30T08:39:33;15.50;99.90
3281;DHT22;1652;51.318;6.202;2023-08-30T08:42:01;15.60;99.90
3281;DHT22;1652;51.318;6.202;2023-08-30T08:44:31;15.60;99.90
3281;DHT22;1652;51.318;6.202;2023-08-30T08:46:59;15.70;99.90
3281;DHT22;1652;51.318;6.202;2023-08-30T08:49:27;15.70;99.90
3281;DHT22;1652;51.318;6.202;2023-08-30T08:51:56;15.70;99.90
3281;DHT22;1652;51.318;6.202;2023-08-30T08:54:24;15.70;99.90
3281;DHT22;1652;51.318;6.202;2023-08-30T08:56:51;15.70;99.90
3281;DHT22;1652;51.318;6.202;2023-08-30T08:59:19;15.70;99.90
3281;DHT22;1652;51.318;6.202;2023-08-30T09:01:48;15.70;99.90
3281;DHT22;1652;51.318;6.202;2023-08-30T09:04:15;15.60;99.90
3281;DHT22;1652;51.318;6.202;2023-08-30T09:06:42;15.60;99.90
3281;DHT22;1652;51.318;6.202;2023-08-30T09:09:14;15.70;99.90
3281;DHT22;1652;51.318;6.202;2023-08-30T09:11:41;15.60;99.90
3281;DHT22;1652;51.318;6.202;2023-08-30T09:14:11;15.60;99.90
3281;DHT22;1652;51.318;6.202;2023-08-30T09:16:38;15.50;99.90
3281;DHT22;1652;51.318;6.202;2023-08-30T09:19:05;15.50;99.90
3281;DHT22;1652;51.318;6.202;2023-08-30T09:21:36;15.40;99.90
3281;DHT22;1652;51.318;6.202;2023-08-30T09:24:05;15.40;99.90
3281;DHT22;1652;51.318;6.202;2023-08-30T09:26:34;15.40;99.90
3281;DHT22;1652;51.318;6.202;2023-08-30T09:29:06;15.40;99.90
3281;DHT22;1652;51.318;6.202;2023-08-30T09:31:37;15.50;99.90
3281;DHT22;1652;51.318;6.202;2023-08-30T09:34:04;15.60;99.90
3281;DHT22;1652;51.318;6.202;2023-08-30T09:36:39;15.60;99.90
3281;DHT22;1652;51.318;6.202;2023-08-30T09:39:09;15.60;99.90
3281;DHT22;1652;51.318;6.202;2023-08-30T09:41:37;15.60;99.90
3281;DHT22;1652;51.318;6.202;2023-08-30T09:44:12;15.50;99.90
3281;DHT22;1652;51.318;6.202;2023-08-30T09:46:51;15.40;99.90
3281;DHT22;1652;51.318;6.202;2023-08-30T09:49:21;15.30;99.90
3281;DHT22;1652;51.318;6.202;2023-08-30T09:51:50;15.30;99.90
3281;DHT22;1652;51.318;6.202;2023-08-30T09:54:21;15.20;99.90
3281;DHT22;1652;51.318;6.202;2023-08-30T09:57:04;15.30;99.90
3281;DHT22;1652;51.318;6.202;2023-08-30T09:59:33;15.20;99.90
3281;DHT22;1652;51.318;6.202;2023-08-30T10:02:00;15.20;99.90
3281;DHT22;1652;51.318;6.202;2023-08-30T10:04:28;15.20;99.90
3281;DHT22;1652;51.318;6.202;2023-08-30T10:06:56;15.20;99.90
3281;DHT22;1652;51.318;6.202;2023-08-30T10:09:28;15.10;99.90
3281;DHT22;1652;51.318;6.202;2023-08-30T10:11:58;15.00;99.90
3281;DHT22;1652;51.318;6.202;2023-08-30T10:14:25;15.00;99.90
3281;DHT22;1652;51.318;6.202;2023-08-30T10:17:01;14.90;99.90
3281;DHT22;1652;51.318;6.202;2023-08-30T10:19:31;14.90;99.90
3281;DHT22;1652;51.318;6.202;2023-08-30T10:22:01;15.00;99.90
3281;DHT22;1652;51.318;6.202;2023-08-30T10:24:35;15.10;99.90
3281;DHT22;1652;51.318;6.202;2023-08-30T10:27:18;15.10;99.90
3281;DHT22;1652;51.318;6.202;2023-08-30T10:29:48;15.10;99.90
3281;DHT22;1652;51.318;6.202;2023-08-30T10:32:22;15.20;99.90
3281;DHT22;1652;51.318;6.202;2023-08-30T10:34:50;15.30;99.90
3281;DHT22;1652;51.318;6.202;2023-08-30T10:37:23;15.30;99.90
3281;DHT22;1652;51.318;6.202;2023-08-30T10:39:53;15.30;99.90
3281;DHT22;1652;51.318;6.202;2023-08-30T10:42:22;15.40;99.90
3281;DHT22;1652;51.318;6.202;2023-08-30T10:44:51;15.30;99.90
3281;DHT22;1652;51.318;6.202;2023-08-30T10:47:39;15.30;99.90
3281;DHT22;1652;51.318;6.202;2023-08-30T10:50:12;15.50;99.90
3281;DHT22;1652;51.318;6.202;2023-08-30T10:52:40;15.40;99.90
3281;DHT22;1652;51.318;6.202;2023-08-30T10:55:12;15.40;99.90
3281;DHT22;1652;51.318;6.202;2023-08-30T10:57:44;15.30;99.90
3281;DHT22;1652;51.318;6.202;2023-08-30T11:00:21;15.30;99.90
3281;DHT22;1652;51.318;6.202;2023-08-30T11:02:49;15.30;99.90
3281;DHT22;1652;51.318;6.202;2023-08-30T11:05:21;15.30;99.90
3281;DHT22;1652;51.318;6.202;2023-08-30T11:07:49;15.40;99.90
3281;DHT22;1652;51.318;6.202;2023-08-30T11:10:18;15.50;99.90
3281;DHT22;1652;51.318;6.202;2023-08-30T11:12:46;15.70;99.90
3281;DHT22;1652;51.318;6.202;2023-08-30T11:15:13;15.80;99.90
3281;DHT22;1652;51.318;6.202;2023-08-30T11:17:44;16.00;99.90
3281;DHT22;1652;51.318;6.202;2023-08-30T11:20:16;16.30;99.90
3281;DHT22;1652;51.318;6.202;2023-08-30T11:22:48;16.50;99.90
3281;DHT22;1652;51.318;6.202;2023-08-30T11:25:16;16.60;99.90
3281;DHT22;1652;51.318;6.202;2023-08-30T11:27:44;16.60;99.90
3281;DHT22;1652;51.318;6.202;2023-08-30T11:30:11;16.60;99.90
3281;DHT22;1652;51.318;6.202;2023-08-30T11:32:39;16.80;99.90
3281;DHT22;1652;51.318;6.202;2023-08-30T11:35:07;16.90;99.90
3281;DHT22;1652;51.318;6.202;2023-08-30T11:37:34;17.10;99.90
3281;DHT22;1652;51.318;6.202;2023-08-30T11:40:03;17.20;99.90
3281;DHT22;1652;51.318;6.202;2023-08-30T11:42:31;17.20;99.90
3281;DHT22;1652;51.318;6.202;2023-08-30T11:44:59;17.20;99.90
3281;DHT22;1652;51.318;6.202;2023-08-30T11:47:27;17.10;99.90
3281;DHT22;1652;51.318;6.202;2023-08-30T11:49:55;16.80;99.90
3281;DHT22;1652;51.318;6.202;2023-08-30T11:52:23;16.60;99.90
3281;DHT22;1652;51.318;6.202;2023-08-30T11:54:51;16.40;99.90
3281;DHT22;1652;51.318;6.202;2023-08-30T11:57:19;16.10;99.90
3281;DHT22;1652;51.318;6.202;2023-08-30T11:59:45;16.00;99.90
3281;DHT22;1652;51.318;6.202;2023-08-30T12:02:15;15.90;99.90
3281;DHT22;1652;51.318;6.202;2023-08-30T12:04:44;15.90;99.90
3281;DHT22;1652;51.318;6.202;2023-08-30T12:07:26;16.00;99.90
3281;DHT22;1652;51.318;6.202;2023-08-30T12:10:14;16.00;99.90
3281;DHT22;1652;51.318;6.202;2023-08-30T12:12:47;16.10;99.90
3281;DHT22;1652;51.318;6.202;2023-08-30T12:15:14;16.20;99.90
3281;DHT22;1652;51.318;6.202;2023-08-30T12:17:42;16.40;99.90
3281;DHT22;1652;51.318;6.202;2023-08-30T12:20:16;16.40;99.90
3281;DHT22;1652;51.318;6.202;2023-08-30T12:22:44;16.40;99.90
3281;DHT22;1652;51.318;6.202;2023-08-30T12:25:18;16.30;99.90
3281;DHT22;1652;51.318;6.202;2023-08-30T12:27:45;16.20;99.90
3281;DHT22;1652;51.318;6.202;2023-08-30T12:30:16;16.10;99.90
3281;DHT22;1652;51.318;6.202;2023-08-30T12:32:46;15.90;99.90
3281;DHT22;1652;51.318;6.202;2023-08-30T12:35:14;15.90;99.90
3281;DHT22;1652;51.318;6.202;2023-08-30T12:37:42;15.80;99.90
3281;DHT22;1652;51.318;6.202;2023-08-30T12:40:09;15.70;99.90
3281;DHT22;1652;51.318;6.202;2023-08-30T12:42:37;15.60;99.90
3281;DHT22;1652;51.318;6.202;2023-08-30T12:45:04;15.60;99.90
3281;DHT22;1652;51.318;6.202;2023-08-30T12:47:31;15.70;99.90
3281;DHT22;1652;51.318;6.202;2023-08-30T12:49:58;15.70;99.90
3281;DHT22;1652;51.318;6.202;2023-08-30T12:52:25;15.80;99.90
3281;DHT22;1652;51.318;6.202;2023-08-30T12:54:52;15.90;99.90
3281;DHT22;1652;51.318;6.202;2023-08-30T12:57:20;16.00;99.90
3281;DHT22;1652;51.318;6.202;2023-08-30T12:59:47;16.10;99.90
3281;DHT22;1652;51.318;6.202;2023-08-30T13:02:14;16.30;99.90
3281;DHT22;1652;51.318;6.202;2023-08-30T13:04:41;16.50;99.90
3281;DHT22;1652;51.318;6.202;2023-08-30T13:07:08;16.70;99.90
3281;DHT22;1652;51.318;6.202;2023-08-30T13:09:35;16.80;99.90
3281;DHT22;1652;51.318;6.202;2023-08-30T13:12:02;16.80;99.90
3281;DHT22;1652;51.318;6.202;2023-08-30T13:14:30;16.80;99.90
3281;DHT22;1652;51.318;6.202;2023-08-30T13:16:57;16.80;99.90
3281;DHT22;1652;51.318;6.202;2023-08-30T13:19:25;16.80;99.90
3281;DHT22;1652;51.318;6.202;2023-08-30T13:21:52;16.80;99.90
3281;DHT22;1652;51.318;6.202;2023-08-30T13:24:19;16.90;99.90
3281;DHT22;1652;51.318;6.202;2023-08-30T13:26:46;16.90;99.90
3281;DHT22;1652;51.318;6.202;2023-08-30T13:29:13;17.00;99.90
3281;DHT22;1652;51.318;6.202;2023-08-30T13:31:39;16.90;99.90
3281;DHT22;1652;51.318;6.202;2023-08-30T13:34:06;16.80;99.90
3281;DHT22;1652;51.318;6.202;2023-08-30T13:36:33;16.70;99.90
3281;DHT22;1652;51.318;6.202;2023-08-30T13:39:00;16.70;99.90
3281;DHT22;1652;51.318;6.202;2023-08-30T13:41:27;16.60;99.90
3281;DHT22;1652;51.318;6.202;2023-08-30T13:43:54;16.60;99.90
3281;DHT22;1652;51.318;6.202;2023-08-30T13:46:24;16.60;99.90
3281;DHT22;1652;51.318;6.202;2023-08-30T13:48:51;16.50;99.90
3281;DHT22;1652;51.318;6.202;2023-08-30T13:51:22;16.40;99.90
3281;DHT22;1652;51.318;6.202;2023-08-30T13:53:50;16.40;99.90
3281;DHT22;1652;51.318;6.202;2023-08-30T13:56:18;16.30;99.90
3281;DHT22;1652;51.318;6.202;2023-08-30T13:58:45;16.20;99.90
3281;DHT22;1652;51.318;6.202;2023-08-30T14:01:12;16.10;99.90
3281;DHT22;1652;51.318;6.202;2023-08-30T14:03:39;16.00;99.90
3281;DHT22;1652;51.318;6.202;2023-08-30T14:06:06;16.00;99.90
3281;DHT22;1652;51.318;6.202;2023-08-30T14:08:33;16.10;99.90
3281;DHT22;1652;51.318;6.202;2023-08-30T14:11:00;16.20;99.90
3281;DHT22;1652;51.318;6.202;2023-08-30T14:13:28;16.20;99.90
3281;DHT22;1652;51.318;6.202;2023-08-30T14:16:02;16.10;99.90
3281;DHT22;1652;51.318;6.202;2023-08-30T14:21:01;16.10;99.90
3281;DHT22;1652;51.318;6.202;2023-08-30T14:23:29;16.30;99.90
3281;DHT22;1652;51.318;6.202;2023-08-30T14:26:02;16.30;99.90
3281;DHT22;1652;51.318;6.202;2023-08-30T14:28:30;16.40;99.90
3281;DHT22;1652;51.318;6.202;2023-08-30T14:30:57;16.40;99.90
3281;DHT22;1652;51.318;6.202;2023-08-30T14:33:24;16.50;99.90
3281;DHT22;1652;51.318;6.202;2023-08-30T14:35:50;16.60;99.90
3281;DHT22;1652;51.318;6.202;2023-08-30T14:38:17;16.70;99.90
3281;DHT22;1652;51.318;6.202;2023-08-30T14:41:01;16.90;99.90
3281;DHT22;1652;51.318;6.202;2023-08-30T14:43:28;17.30;99.90
3281;DHT22;1652;51.318;6.202;2023-08-30T14:46:03;17.40;99.90
3281;DHT22;1652;51.318;6.202;2023-08-30T14:48:37;17.40;99.90
3281;DHT22;1652;51.318;6.202;2023-08-30T14:51:05;17.30;99.90
3281;DHT22;1652;51.318;6.202;2023-08-30T14:53:32;17.30;99.90
3281;DHT22;1652;51.318;6.202;2023-08-30T14:55:59;17.30;99.90
3281;DHT22;1652;51.318;6.202;2023-08-30T14:58:26;17.30;99.90
3281;DHT22;1652;51.318;6.202;2023-08-30T15:00:54;17.30;99.90
3281;DHT22;1652;51.318;6.202;2023-08-30T15:03:21;17.40;99.90
3281;DHT22;1652;51.318;6.202;2023-08-30T15:05:57;17.50;99.90
3281;DHT22;1652;51.318;6.202;2023-08-30T15:08:25;17.40;99.90
3281;DHT22;1652;51.318;6.202;2023-08-30T15:10:52;17.40;99.90
3281;DHT22;1652;51.318;6.202;2023-08-30T15:13:19;17.40;99.90
3281;DHT22;1652;51.318;6.202;2023-08-30T15:15:47;17.40;99.90
3281;DHT22;1652;51.318;6.202;2023-08-30T15:18:14;17.40;99.90
3281;DHT22;1652;51.318;6.202;2023-08-30T15:20:42;17.40;99.90
3281;DHT22;1652;51.318;6.202;2023-08-30T15:23:13;17.50;99.90
3281;DHT22;1652;51.318;6.202;2023-08-30T15:25:45;17.60;99.90
3281;DHT22;1652;51.318;6.202;2023-08-30T15:28:15;17.70;99.90
3281;DHT22;1652;51.318;6.202;2023-08-30T15:30:44;17.80;99.90
3281;DHT22;1652;51.318;6.202;2023-08-30T15:33:11;17.90;99.90
3281;DHT22;1652;51.318;6.202;2023-08-30T15:35:46;18.00;99.90
3281;DHT22;1652;51.318;6.202;2023-08-30T15:38:13;18.10;99.90
3281;DHT22;1652;51.318;6.202;2023-08-30T15:40:41;18.10;99.90
3281;DHT22;1652;51.318;6.202;2023-08-30T15:43:08;18.00;99.90
3281;DHT22;1652;51.318;6.202;2023-08-30T15:45:35;18.00;99.90
3281;DHT22;1652;51.318;6.202;2023-08-30T15:48:03;18.00;99.90
3281;DHT22;1652;51.318;6.202;2023-08-30T15:50:30;18.10;99.90
3281;DHT22;1652;51.318;6.202;2023-08-30T15:52:57;18.20;99.90
3281;DHT22;1652;51.318;6.202;2023-08-30T15:55:24;18.20;99.90
3281;DHT22;1652;51.318;6.202;2023-08-30T15:57:55;18.10;99.90
3281;DHT22;1652;51.318;6.202;2023-08-30T16:00:22;18.00;99.90
3281;DHT22;1652;51.318;6.202;2023-08-30T16:02:50;18.00;99.90
3281;DHT22;1652;51.318;6.202;2023-08-30T16:05:19;18.00;99.90
3281;DHT22;1652;51.318;6.202;2023-08-30T16:07:46;17.90;99.90
3281;DHT22;1652;51.318;6.202;2023-08-30T16:10:13;17.80;99.90
3281;DHT22;1652;51.318;6.202;2023-08-30T16:12:40;17.80;99.90
3281;DHT22;1652;51.318;6.202;2023-08-30T16:15:07;17.80;99.90